sensor_id;sensor_type;location;lat;lon;timestamp;P1;durP1;ratioP1;P2;durP2;ratioP2
27357;SDS011;14831;50.474;7.616;2024-03-29T00:02:47;3.4;;;0.8;;
27357;SDS011;14831;50.474;7.616;2024-03-29T00:07:47;2.7;;;1.1;;
27357;SDS011;14831;50.474;7.616;2024-03-29T00:12:48;2.7;;;1.1;;
27357;SDS011;14831;50.474;7.616;2024-03-29T00:17:48;2.7;;;1.1;;
27357;SDS011;14831;50.474;7.616;2024-03-29T00:22:47;2.7;;;1.1;;
27357;SDS011;14831;50.474;7.616;2024-03-29T00:27:47;2.7;;;1.1;;
27357;SDS011;14831;50.474;7.616;2024-03-29T00:32:47;2.7;;;1.1;;
27357;SDS011;14831;50.474;7.616;2024-03-29T00:37:48;3.7;;;1.1;;
27357;SDS011;14831;50.474;7.616;2024-03-29T00:42:47;3.7;;;1.1;;
27357;SDS011;14831;50.474;7.616;2024-03-29T00:47:47;3.7;;;1.1;;
27357;SDS011;14831;50.474;7.616;2024-03-29T00:52:47;3.7;;;1.1;;
27357;SDS011;14831;50.474;7.616;2024-03-29T00:57:47;3.7;;;1.1;;
27357;SDS011;14831;50.474;7.616;2024-03-29T01:02:47;3.7;;;1.1;;
27357;SDS011;14831;50.474;7.616;2024-03-29T01:07:47;3.5;;;1.1;;
27357;SDS011;14831;50.474;7.616;2024-03-29T01:12:47;3.5;;;1.1;;
27357;SDS011;14831;50.474;7.616;2024-03-29T01:17:47;3.5;;;1.1;;
27357;SDS011;14831;50.474;7.616;2024-03-29T01:22:47;3.5;;;1.1;;
27357;SDS011;14831;50.474;7.616;2024-03-29T01:27:47;3.5;;;1.1;;
27357;SDS011;14831;50.474;7.616;2024-03-29T01:32:47;3.5;;;1.1;;
27357;SDS011;14831;50.474;7.616;2024-03-29T01:37:47;3.7;;;1.1;;
27357;SDS011;14831;50.474;7.616;2024-03-29T01:42:47;3.7;;;1.1;;
27357;SDS011;14831;50.474;7.616;2024-03-29T01:47:48;3.7;;;1.1;;
27357;SDS011;14831;50.474;7.616;2024-03-29T01:52:49;3.7;;;1.1;;
27357;SDS011;14831;50.474;7.616;2024-03-29T01:57:48;3.7;;;1.1;;
27357;SDS011;14831;50.474;7.616;2024-03-29T02:02:47;3.7;;;1.1;;
27357;SDS011;14831;50.474;7.616;2024-03-29T02:07:48;3.4;;;1.3;;
27357;SDS011;14831;50.474;7.616;2024-03-29T02:12:47;3.4;;;1.3;;
27357;SDS011;14831;50.474;7.616;2024-03-29T02:17:47;3.4;;;1.3;;
27357;SDS011;14831;50.474;7.616;2024-03-29T02:22:54;3.4;;;1.3;;
27357;SDS011;14831;50.474;7.616;2024-03-29T02:27:48;3.4;;;1.3;;
27357;SDS011;14831;50.474;7.616;2024-03-29T02:32:47;3.4;;;1.3;;
27357;SDS011;14831;50.474;7.616;2024-03-29T02:37:48;6.0;;;1.2;;
27357;SDS011;14831;50.474;7.616;2024-03-29T02:42:48;6.0;;;1.2;;
27357;SDS011;14831;50.474;7.616;2024-03-29T02:47:47;6.0;;;1.2;;
27357;SDS011;14831;50.474;7.616;2024-03-29T02:52:47;6.0;;;1.2;;
27357;SDS011;14831;50.474;7.616;2024-03-29T02:57:47;6.0;;;1.2;;
27357;SDS011;14831;50.474;7.616;2024-03-29T03:02:47;6.0;;;1.2;;
27357;SDS011;14831;50.474;7.616;2024-03-29T03:07:47;3.4;;;1.2;;
27357;SDS011;14831;50.474;7.616;2024-03-29T03:12:47;3.4;;;1.2;;
27357;SDS011;14831;50.474;7.616;2024-03-29T03:17:47;3.4;;;1.2;;
27357;SDS011;14831;50.474;7.616;2024-03-29T03:22:47;3.4;;;1.2;;
27357;SDS011;14831;50.474;7.616;2024-03-29T03:27:47;3.4;;;1.2;;
27357;SDS011;14831;50.474;7.616;2024-03-29T03:32:48;3.4;;;1.2;;
27357;SDS011;14831;50.474;7.616;2024-03-29T03:37:47;4.6;;;1.2;;
27357;SDS011;14831;50.474;7.616;2024-03-29T03:42:47;4.6;;;1.2;;
27357;SDS011;14831;50.474;7.616;2024-03-29T03:47:47;4.6;;;1.2;;
27357;SDS011;14831;50.474;7.616;2024-03-29T03:52:47;4.6;;;1.2;;
27357;SDS011;14831;50.474;7.616;2024-03-29T03:57:47;4.6;;;1.2;;
27357;SDS011;14831;50.474;7.616;2024-03-29T04:02:48;4.6;;;1.2;;
27357;SDS011;14831;50.474;7.616;2024-03-29T04:07:48;3.0;;;1.3;;
27357;SDS011;14831;50.474;7.616;2024-03-29T04:12:47;3.0;;;1.3;;
27357;SDS011;14831;50.474;7.616;2024-03-29T04:17:48;3.0;;;1.3;;
27357;SDS011;14831;50.474;7.616;2024-03-29T04:22:47;3.0;;;1.3;;
27357;SDS011;14831;50.474;7.616;2024-03-29T04:27:47;3.0;;;1.3;;
27357;SDS011;14831;50.474;7.616;2024-03-29T04:32:47;3.0;;;1.3;;
27357;SDS011;14831;50.474;7.616;2024-03-29T04:37:47;3.5;;;1.3;;
27357;SDS011;14831;50.474;7.616;2024-03-29T04:42:47;3.5;;;1.3;;
27357;SDS011;14831;50.474;7.616;2024-03-29T04:47:47;3.5;;;1.3;;
27357;SDS011;14831;50.474;7.616;2024-03-29T04:52:47;3.5;;;1.3;;
27357;SDS011;14831;50.474;7.616;2024-03-29T04:57:47;3.5;;;1.3;;
27357;SDS011;14831;50.474;7.616;2024-03-29T05:02:47;3.5;;;1.3;;
27357;SDS011;14831;50.474;7.616;2024-03-29T05:07:47;3.2;;;1.5;;
27357;SDS011;14831;50.474;7.616;2024-03-29T05:12:47;3.2;;;1.5;;
27357;SDS011;14831;50.474;7.616;2024-03-29T05:17:47;3.2;;;1.5;;
27357;SDS011;14831;50.474;7.616;2024-03-29T05:22:47;3.2;;;1.5;;
27357;SDS011;14831;50.474;7.616;2024-03-29T05:27:48;3.2;;;1.5;;
27357;SDS011;14831;50.474;7.616;2024-03-29T05:32:47;3.2;;;1.5;;
27357;SDS011;14831;50.474;7.616;2024-03-29T05:37:47;2.4;;;1.2;;
27357;SDS011;14831;50.474;7.616;2024-03-29T05:42:47;2.4;;;1.2;;
27357;SDS011;14831;50.474;7.616;2024-03-29T05:47:47;2.4;;;1.2;;
27357;SDS011;14831;50.474;7.616;2024-03-29T05:52:48;2.4;;;1.2;;
27357;SDS011;14831;50.474;7.616;2024-03-29T05:57:47;2.4;;;1.2;;
27357;SDS011;14831;50.474;7.616;2024-03-29T06:02:47;2.4;;;1.2;;
27357;SDS011;14831;50.474;7.616;2024-03-29T06:07:47;2.9;;;1.3;;
27357;SDS011;14831;50.474;7.616;2024-03-29T06:12:47;2.9;;;1.3;;
27357;SDS011;14831;50.474;7.616;2024-03-29T06:17:47;2.9;;;1.3;;
27357;SDS011;14831;50.474;7.616;2024-03-29T06:22:47;2.9;;;1.3;;
27357;SDS011;14831;50.474;7.616;2024-03-29T06:27:47;2.9;;;1.3;;
27357;SDS011;14831;50.474;7.616;2024-03-29T06:32:47;2.9;;;1.3;;
27357;SDS011;14831;50.474;7.616;2024-03-29T06:37:47;1.9;;;1.3;;
27357;SDS011;14831;50.474;7.616;2024-03-29T06:42:47;1.9;;;1.3;;
27357;SDS011;14831;50.474;7.616;2024-03-29T06:47:47;1.9;;;1.3;;
27357;SDS011;14831;50.474;7.616;2024-03-29T06:52:47;1.9;;;1.3;;
27357;SDS011;14831;50.474;7.616;2024-03-29T06:57:47;1.9;;;1.3;;
27357;SDS011;14831;50.474;7.616;2024-03-29T07:02:47;1.9;;;1.3;;
27357;SDS011;14831;50.474;7.616;2024-03-29T07:07:47;2.5;;;1.1;;
27357;SDS011;14831;50.474;7.616;2024-03-29T07:12:47;2.5;;;1.1;;
27357;SDS011;14831;50.474;7.616;2024-03-29T07:17:47;2.5;;;1.1;;
27357;SDS011;14831;50.474;7.616;2024-03-29T07:22:47;2.5;;;1.1;;
27357;SDS011;14831;50.474;7.616;2024-03-29T07:27:47;2.5;;;1.1;;
27357;SDS011;14831;50.474;7.616;2024-03-29T07:32:47;2.5;;;1.1;;
27357;SDS011;14831;50.474;7.616;2024-03-29T07:37:47;3.0;;;1.6;;
27357;SDS011;14831;50.474;7.616;2024-03-29T07:42:47;3.0;;;1.6;;
27357;SDS011;14831;50.474;7.616;2024-03-29T07:47:48;3.0;;;1.6;;
27357;SDS011;14831;50.474;7.616;2024-03-29T07:52:47;3.0;;;1.6;;
27357;SDS011;14831;50.474;7.616;2024-03-29T07:57:47;3.0;;;1.6;;
27357;SDS011;14831;50.474;7.616;2024-03-29T08:02:47;3.0;;;1.6;;
27357;SDS011;14831;50.474;7.616;2024-03-29T08:07:47;4.4;;;2.5;;
27357;SDS011;14831;50.474;7.616;2024-03-29T08:12:47;4.4;;;2.5;;
27357;SDS011;14831;50.474;7.616;2024-03-29T08:17:48;4.4;;;2.5;;
27357;SDS011;14831;50.474;7.616;2024-03-29T08:22:47;4.4;;;2.5;;
27357;SDS011;14831;50.474;7.616;2024-03-29T08:27:47;4.4;;;2.5;;
27357;SDS011;14831;50.474;7.616;2024-03-29T08:32:47;4.4;;;2.5;;
27357;SDS011;14831;50.474;7.616;2024-03-29T08:37:47;3.0;;;1.8;;
27357;SDS011;14831;50.474;7.616;2024-03-29T08:42:48;3.0;;;1.8;;
27357;SDS011;14831;50.474;7.616;2024-03-29T08:47:47;3.0;;;1.8;;
27357;SDS011;14831;50.474;7.616;2024-03-29T08:52:48;3.0;;;1.8;;
27357;SDS011;14831;50.474;7.616;2024-03-29T08:57:47;3.0;;;1.8;;
27357;SDS011;14831;50.474;7.616;2024-03-29T09:02:47;3.0;;;1.8;;
27357;SDS011;14831;50.474;7.616;2024-03-29T09:07:48;6.3;;;4.8;;
27357;SDS011;14831;50.474;7.616;2024-03-29T09:12:47;6.3;;;4.8;;
27357;SDS011;14831;50.474;7.616;2024-03-29T09:17:47;6.3;;;4.8;;
27357;SDS011;14831;50.474;7.616;2024-03-29T09:22:50;6.3;;;4.8;;
27357;SDS011;14831;50.474;7.616;2024-03-29T09:27:47;6.3;;;4.8;;
27357;SDS011;14831;50.474;7.616;2024-03-29T09:32:48;6.3;;;4.8;;
27357;SDS011;14831;50.474;7.616;2024-03-29T09:37:47;3.0;;;1.4;;
27357;SDS011;14831;50.474;7.616;2024-03-29T09:42:48;3.0;;;1.4;;
27357;SDS011;14831;50.474;7.616;2024-03-29T09:47:49;3.0;;;1.4;;
27357;SDS011;14831;50.474;7.616;2024-03-29T09:52:49;3.0;;;1.4;;
27357;SDS011;14831;50.474;7.616;2024-03-29T09:57:47;3.0;;;1.4;;
27357;SDS011;14831;50.474;7.616;2024-03-29T10:02:49;3.0;;;1.4;;
27357;SDS011;14831;50.474;7.616;2024-03-29T10:07:48;1.5;;;1.2;;
27357;SDS011;14831;50.474;7.616;2024-03-29T10:12:47;1.5;;;1.2;;
27357;SDS011;14831;50.474;7.616;2024-03-29T10:17:48;1.5;;;1.2;;
27357;SDS011;14831;50.474;7.616;2024-03-29T10:22:47;1.5;;;1.2;;
27357;SDS011;14831;50.474;7.616;2024-03-29T10:27:47;1.5;;;1.2;;
27357;SDS011;14831;50.474;7.616;2024-03-29T10:32:47;1.5;;;1.2;;
27357;SDS011;14831;50.474;7.616;2024-03-29T10:37:48;1.9;;;1.4;;
27357;SDS011;14831;50.474;7.616;2024-03-29T10:42:48;1.9;;;1.4;;
27357;SDS011;14831;50.474;7.616;2024-03-29T10:47:49;1.9;;;1.4;;
27357;SDS011;14831;50.474;7.616;2024-03-29T10:52:48;1.9;;;1.4;;
27357;SDS011;14831;50.474;7.616;2024-03-29T10:57:52;1.9;;;1.4;;
27357;SDS011;14831;50.474;7.616;2024-03-29T11:02:50;1.9;;;1.4;;
27357;SDS011;14831;50.474;7.616;2024-03-29T11:07:49;3.1;;;2.0;;
27357;SDS011;14831;50.474;7.616;2024-03-29T11:12:57;3.1;;;2.0;;
27357;SDS011;14831;50.474;7.616;2024-03-29T11:17:48;3.1;;;2.0;;
27357;SDS011;14831;50.474;7.616;2024-03-29T11:22:47;3.1;;;2.0;;
27357;SDS011;14831;50.474;7.616;2024-03-29T11:27:47;3.1;;;2.0;;
27357;SDS011;14831;50.474;7.616;2024-03-29T11:32:47;3.1;;;2.0;;
27357;SDS011;14831;50.474;7.616;2024-03-29T11:37:56;1.4;;;1.3;;
27357;SDS011;14831;50.474;7.616;2024-03-29T11:42:47;1.4;;;1.3;;
27357;SDS011;14831;50.474;7.616;2024-03-29T11:47:48;1.4;;;1.3;;
27357;SDS011;14831;50.474;7.616;2024-03-29T11:52:47;1.4;;;1.3;;
27357;SDS011;14831;50.474;7.616;2024-03-29T11:57:47;1.4;;;1.3;;
27357;SDS011;14831;50.474;7.616;2024-03-29T12:02:48;1.4;;;1.3;;
27357;SDS011;14831;50.474;7.616;2024-03-29T12:07:47;2.3;;;1.9;;
27357;SDS011;14831;50.474;7.616;2024-03-29T12:12:47;2.3;;;1.9;;
27357;SDS011;14831;50.474;7.616;2024-03-29T12:17:53;2.3;;;1.9;;
27357;SDS011;14831;50.474;7.616;2024-03-29T12:22:47;2.3;;;1.9;;
27357;SDS011;14831;50.474;7.616;2024-03-29T12:27:47;2.3;;;1.9;;
27357;SDS011;14831;50.474;7.616;2024-03-29T12:32:47;2.3;;;1.9;;
27357;SDS011;14831;50.474;7.616;2024-03-29T12:37:48;3.0;;;2.8;;
27357;SDS011;14831;50.474;7.616;2024-03-29T12:42:48;3.0;;;2.8;;
27357;SDS011;14831;50.474;7.616;2024-03-29T12:47:48;3.0;;;2.8;;
27357;SDS011;14831;50.474;7.616;2024-03-29T12:52:47;3.0;;;2.8;;
27357;SDS011;14831;50.474;7.616;2024-03-29T12:57:47;3.0;;;2.8;;
27357;SDS011;14831;50.474;7.616;2024-03-29T13:02:48;3.0;;;2.8;;
27357;SDS011;14831;50.474;7.616;2024-03-29T13:07:47;2.8;;;2.5;;
27357;SDS011;14831;50.474;7.616;2024-03-29T13:12:48;2.8;;;2.5;;
27357;SDS011;14831;50.474;7.616;2024-03-29T13:17:48;2.8;;;2.5;;
27357;SDS011;14831;50.474;7.616;2024-03-29T13:22:49;2.8;;;2.5;;
27357;SDS011;14831;50.474;7.616;2024-03-29T13:27:49;2.8;;;2.5;;
27357;SDS011;14831;50.474;7.616;2024-03-29T13:32:48;2.8;;;2.5;;
27357;SDS011;14831;50.474;7.616;2024-03-29T13:37:49;2.5;;;1.8;;
27357;SDS011;14831;50.474;7.616;2024-03-29T13:42:48;2.5;;;1.8;;
27357;SDS011;14831;50.474;7.616;2024-03-29T13:47:47;2.5;;;1.8;;
27357;SDS011;14831;50.474;7.616;2024-03-29T13:52:47;2.5;;;1.8;;
27357;SDS011;14831;50.474;7.616;2024-03-29T13:57:47;2.5;;;1.8;;
27357;SDS011;14831;50.474;7.616;2024-03-29T14:02:47;2.5;;;1.8;;
27357;SDS011;14831;50.474;7.616;2024-03-29T14:07:47;1.8;;;1.1;;
27357;SDS011;14831;50.474;7.616;2024-03-29T14:12:47;1.8;;;1.1;;
27357;SDS011;14831;50.474;7.616;2024-03-29T14:17:47;1.8;;;1.1;;
27357;SDS011;14831;50.474;7.616;2024-03-29T14:22:47;1.8;;;1.1;;
27357;SDS011;14831;50.474;7.616;2024-03-29T14:27:47;1.8;;;1.1;;
27357;SDS011;14831;50.474;7.616;2024-03-29T14:32:49;1.8;;;1.1;;
27357;SDS011;14831;50.474;7.616;2024-03-29T14:37:48;1.0;;;1.0;;
27357;SDS011;14831;50.474;7.616;2024-03-29T14:42:47;1.0;;;1.0;;
27357;SDS011;14831;50.474;7.616;2024-03-29T14:47:47;1.0;;;1.0;;
27357;SDS011;14831;50.474;7.616;2024-03-29T14:52:47;1.0;;;1.0;;
27357;SDS011;14831;50.474;7.616;2024-03-29T14:57:47;1.0;;;1.0;;
27357;SDS011;14831;50.474;7.616;2024-03-29T15:02:47;1.0;;;1.0;;
27357;SDS011;14831;50.474;7.616;2024-03-29T15:07:47;1.2;;;1.0;;
27357;SDS011;14831;50.474;7.616;2024-03-29T15:12:47;1.2;;;1.0;;
27357;SDS011;14831;50.474;7.616;2024-03-29T15:17:47;1.2;;;1.0;;
27357;SDS011;14831;50.474;7.616;2024-03-29T15:22:47;1.2;;;1.0;;
27357;SDS011;14831;50.474;7.616;2024-03-29T15:27:47;1.2;;;1.0;;
27357;SDS011;14831;50.474;7.616;2024-03-29T15:32:47;1.2;;;1.0;;
27357;SDS011;14831;50.474;7.616;2024-03-29T15:37:47;2.6;;;1.5;;
27357;SDS011;14831;50.474;7.616;2024-03-29T15:42:47;2.6;;;1.5;;
27357;SDS011;14831;50.474;7.616;2024-03-29T15:47:47;2.6;;;1.5;;
27357;SDS011;14831;50.474;7.616;2024-03-29T15:52:47;2.6;;;1.5;;
27357;SDS011;14831;50.474;7.616;2024-03-29T15:57:47;2.6;;;1.5;;
27357;SDS011;14831;50.474;7.616;2024-03-29T16:02:47;2.6;;;1.5;;
27357;SDS011;14831;50.474;7.616;2024-03-29T16:07:47;42.3;;;19.8;;
27357;SDS011;14831;50.474;7.616;2024-03-29T16:12:47;42.3;;;19.8;;
27357;SDS011;14831;50.474;7.616;2024-03-29T16:17:47;42.3;;;19.8;;
27357;SDS011;14831;50.474;7.616;2024-03-29T16:22:47;42.3;;;19.8;;
27357;SDS011;14831;50.474;7.616;2024-03-29T16:27:47;42.3;;;19.8;;
27357;SDS011;14831;50.474;7.616;2024-03-29T16:32:47;42.3;;;19.8;;
27357;SDS011;14831;50.474;7.616;2024-03-29T16:37:47;7.9;;;7.1;;
27357;SDS011;14831;50.474;7.616;2024-03-29T16:42:47;7.9;;;7.1;;
27357;SDS011;14831;50.474;7.616;2024-03-29T16:47:48;7.9;;;7.1;;
27357;SDS011;14831;50.474;7.616;2024-03-29T16:52:47;7.9;;;7.1;;
27357;SDS011;14831;50.474;7.616;2024-03-29T16:57:47;7.9;;;7.1;;
27357;SDS011;14831;50.474;7.616;2024-03-29T17:02:47;7.9;;;7.1;;
27357;SDS011;14831;50.474;7.616;2024-03-29T17:07:48;3.5;;;2.6;;
27357;SDS011;14831;50.474;7.616;2024-03-29T17:12:47;3.5;;;2.6;;
27357;SDS011;14831;50.474;7.616;2024-03-29T17:17:47;3.5;;;2.6;;
27357;SDS011;14831;50.474;7.616;2024-03-29T17:22:47;3.5;;;2.6;;
27357;SDS011;14831;50.474;7.616;2024-03-29T17:27:47;3.5;;;2.6;;
27357;SDS011;14831;50.474;7.616;2024-03-29T17:32:47;3.5;;;2.6;;
27357;SDS011;14831;50.474;7.616;2024-03-29T17:37:47;4.9;;;2.1;;
27357;SDS011;14831;50.474;7.616;2024-03-29T17:42:47;4.9;;;2.1;;
27357;SDS011;14831;50.474;7.616;2024-03-29T17:47:47;4.9;;;2.1;;
27357;SDS011;14831;50.474;7.616;2024-03-29T17:52:47;4.9;;;2.1;;
27357;SDS011;14831;50.474;7.616;2024-03-29T17:57:47;4.9;;;2.1;;
27357;SDS011;14831;50.474;7.616;2024-03-29T18:02:47;4.9;;;2.1;;
27357;SDS011;14831;50.474;7.616;2024-03-29T18:07:47;2.5;;;2.1;;
27357;SDS011;14831;50.474;7.616;2024-03-29T18:12:47;2.5;;;2.1;;
27357;SDS011;14831;50.474;7.616;2024-03-29T18:17:47;2.5;;;2.1;;
27357;SDS011;14831;50.474;7.616;2024-03-29T18:22:47;2.5;;;2.1;;
27357;SDS011;14831;50.474;7.616;2024-03-29T18:27:47;2.5;;;2.1;;
27357;SDS011;14831;50.474;7.616;2024-03-29T18:32:47;2.5;;;2.1;;
27357;SDS011;14831;50.474;7.616;2024-03-29T18:37:47;6.7;;;4.8;;
27357;SDS011;14831;50.474;7.616;2024-03-29T18:42:48;6.7;;;4.8;;
27357;SDS011;14831;50.474;7.616;2024-03-29T18:47:48;6.7;;;4.8;;
27357;SDS011;14831;50.474;7.616;2024-03-29T18:52:48;6.7;;;4.8;;
27357;SDS011;14831;50.474;7.616;2024-03-29T18:57:47;6.7;;;4.8;;
27357;SDS011;14831;50.474;7.616;2024-03-29T19:02:47;6.7;;;4.8;;
27357;SDS011;14831;50.474;7.616;2024-03-29T19:07:47;9.2;;;5.7;;
27357;SDS011;14831;50.474;7.616;2024-03-29T19:12:47;9.2;;;5.7;;
27357;SDS011;14831;50.474;7.616;2024-03-29T19:17:47;9.2;;;5.7;;
27357;SDS011;14831;50.474;7.616;2024-03-29T19:22:47;9.2;;;5.7;;
27357;SDS011;14831;50.474;7.616;2024-03-29T19:27:48;9.2;;;5.7;;
27357;SDS011;14831;50.474;7.616;2024-03-29T19:32:55;9.2;;;5.7;;
27357;SDS011;14831;50.474;7.616;2024-03-29T19:37:47;6.0;;;4.5;;
27357;SDS011;14831;50.474;7.616;2024-03-29T19:42:48;6.0;;;4.5;;
27357;SDS011;14831;50.474;7.616;2024-03-29T19:47:47;6.0;;;4.5;;
27357;SDS011;14831;50.474;7.616;2024-03-29T19:52:47;6.0;;;4.5;;
27357;SDS011;14831;50.474;7.616;2024-03-29T19:57:48;6.0;;;4.5;;
27357;SDS011;14831;50.474;7.616;2024-03-29T20:02:47;6.0;;;4.5;;
27357;SDS011;14831;50.474;7.616;2024-03-29T20:07:47;11.3;;;8.0;;
27357;SDS011;14831;50.474;7.616;2024-03-29T20:12:47;11.3;;;8.0;;
27357;SDS011;14831;50.474;7.616;2024-03-29T20:17:47;11.3;;;8.0;;
27357;SDS011;14831;50.474;7.616;2024-03-29T20:22:47;11.3;;;8.0;;
27357;SDS011;14831;50.474;7.616;2024-03-29T20:27:47;11.3;;;8.0;;
27357;SDS011;14831;50.474;7.616;2024-03-29T20:32:47;11.3;;;8.0;;
27357;SDS011;14831;50.474;7.616;2024-03-29T20:37:47;11.4;;;7.9;;
27357;SDS011;14831;50.474;7.616;2024-03-29T20:42:47;11.4;;;7.9;;
27357;SDS011;14831;50.474;7.616;2024-03-29T20:47:47;11.4;;;7.9;;
27357;SDS011;14831;50.474;7.616;2024-03-29T20:52:51;11.4;;;7.9;;
27357;SDS011;14831;50.474;7.616;2024-03-29T20:57:48;11.4;;;7.9;;
27357;SDS011;14831;50.474;7.616;2024-03-29T21:02:48;11.4;;;7.9;;
27357;SDS011;14831;50.474;7.616;2024-03-29T21:07:47;22.7;;;13.0;;
27357;SDS011;14831;50.474;7.616;2024-03-29T21:12:47;22.7;;;13.0;;
27357;SDS011;14831;50.474;7.616;2024-03-29T21:17:47;22.7;;;13.0;;
27357;SDS011;14831;50.474;7.616;2024-03-29T21:22:47;22.7;;;13.0;;
27357;SDS011;14831;50.474;7.616;2024-03-29T21:27:47;22.7;;;13.0;;
27357;SDS011;14831;50.474;7.616;2024-03-29T21:32:48;22.7;;;13.0;;
27357;SDS011;14831;50.474;7.616;2024-03-29T21:37:48;42.5;;;21.4;;
27357;SDS011;14831;50.474;7.616;2024-03-29T21:42:47;42.5;;;21.4;;
27357;SDS011;14831;50.474;7.616;2024-03-29T21:47:47;42.5;;;21.4;;
27357;SDS011;14831;50.474;7.616;2024-03-29T21:52:47;42.5;;;21.4;;
27357;SDS011;14831;50.474;7.616;2024-03-29T21:57:47;42.5;;;21.4;;
27357;SDS011;14831;50.474;7.616;2024-03-29T22:02:47;42.5;;;21.4;;
27357;SDS011;14831;50.474;7.616;2024-03-29T22:07:47;72.0;;;27.6;;
27357;SDS011;14831;50.474;7.616;2024-03-29T22:12:47;72.0;;;27.6;;
27357;SDS011;14831;50.474;7.616;2024-03-29T22:17:47;72.0;;;27.6;;
27357;SDS011;14831;50.474;7.616;2024-03-29T22:22:47;72.0;;;27.6;;
27357;SDS011;14831;50.474;7.616;2024-03-29T22:27:47;72.0;;;27.6;;
27357;SDS011;14831;50.474;7.616;2024-03-29T22:32:47;72.0;;;27.6;;
27357;SDS011;14831;50.474;7.616;2024-03-29T22:37:47;68.2;;;28.0;;
27357;SDS011;14831;50.474;7.616;2024-03-29T22:42:47;68.2;;;28.0;;
27357;SDS011;14831;50.474;7.616;2024-03-29T22:47:47;68.2;;;28.0;;
27357;SDS011;14831;50.474;7.616;2024-03-29T22:52:47;68.2;;;28.0;;
27357;SDS011;14831;50.474;7.616;2024-03-29T22:57:47;68.2;;;28.0;;
27357;SDS011;14831;50.474;7.616;2024-03-29T23:02:47;68.2;;;28.0;;
27357;SDS011;14831;50.474;7.616;2024-03-29T23:07:47;53.5;;;25.8;;
27357;SDS011;14831;50.474;7.616;2024-03-29T23:12:48;53.5;;;25.8;;
27357;SDS011;14831;50.474;7.616;2024-03-29T23:17:47;53.5;;;25.8;;
27357;SDS011;14831;50.474;7.616;2024-03-29T23:22:47;53.5;;;25.8;;
27357;SDS011;14831;50.474;7.616;2024-03-29T23:27:47;53.5;;;25.8;;
27357;SDS011;14831;50.474;7.616;2024-03-29T23:32:47;53.5;;;25.8;;
27357;SDS011;14831;50.474;7.616;2024-03-29T23:37:49;72.8;;;30.6;;
27357;SDS011;14831;50.474;7.616;2024-03-29T23:42:47;72.8;;;30.6;;
27357;SDS011;14831;50.474;7.616;2024-03-29T23:47:47;72.8;;;30.6;;
27357;SDS011;14831;50.474;7.616;2024-03-29T23:52:47;72.8;;;30.6;;
27357;SDS011;14831;50.474;7.616;2024-03-29T23:57:48;72.8;;;30.6;;
